Cateechee, South Carolina
Current Conditions -  °F | °C
As of 2:15 AM on Friday 31 Oct 2014 (Local Time) from KLQK Reporting Station
Clear Clear  
Wind Chill:   Ceiling: Unl
Heat Index:   Visibility: 10mi
Dew Point:   Wind: 0mph
Humidity: 97%   Direction: NA
Pressure: 29.96"   Gusts: NA
Location:  34.7622°N, 82.7553°W
Report Text: KLQK 310615Z AUTO 00000KT 10SM CLR 04/04 A2996 RMK AO2 T00390035
Loading
Personal Weather Stations






























Interactive Weather Map
Tropical Storm Tracking
New forecast layout! Learn more

10-Day Weather Forecast

Advertisements
Track Severe Weather on mobile